sensor_id;sensor_type;location;lat;lon;timestamp;pressure;altitude;pressure_sealevel;temperature;humidity
22000;BME280;11164;48.818;2.322;2023-02-13T00:00:19;102457.63;;;8.38;45.02
22000;BME280;11164;48.818;2.322;2023-02-13T00:02:45;102456.50;;;8.31;45.15
22000;BME280;11164;48.818;2.322;2023-02-13T00:05:14;102451.69;;;8.35;45.14
22000;BME280;11164;48.818;2.322;2023-02-13T00:07:39;102447.03;;;8.37;45.07
22000;BME280;11164;48.818;2.322;2023-02-13T00:10:06;102450.25;;;8.31;45.41
22000;BME280;11164;48.818;2.322;2023-02-13T00:12:31;102449.84;;;8.35;45.17
22000;BME280;11164;48.818;2.322;2023-02-13T00:14:57;102445.47;;;8.34;45.13
22000;BME280;11164;48.818;2.322;2023-02-13T00:17:23;102452.81;;;8.32;45.05
22000;BME280;11164;48.818;2.322;2023-02-13T00:19:50;102442.19;;;8.21;45.40
22000;BME280;11164;48.818;2.322;2023-02-13T00:22:15;102444.13;;;8.09;45.49
22000;BME280;11164;48.818;2.322;2023-02-13T00:24:41;102441.03;;;8.14;45.59
22000;BME280;11164;48.818;2.322;2023-02-13T00:27:07;102430.38;;;8.02;45.75
22000;BME280;11164;48.818;2.322;2023-02-13T00:29:32;102451.22;;;8.10;45.81
22000;BME280;11164;48.818;2.322;2023-02-13T00:31:58;102446.84;;;8.19;45.67
22000;BME280;11164;48.818;2.322;2023-02-13T00:34:24;102438.66;;;8.20;45.84
22000;BME280;11164;48.818;2.322;2023-02-13T00:36:49;102446.13;;;8.17;45.48
22000;BME280;11164;48.818;2.322;2023-02-13T00:39:15;102446.56;;;8.22;45.33
22000;BME280;11164;48.818;2.322;2023-02-13T00:41:40;102439.06;;;8.16;45.59
22000;BME280;11164;48.818;2.322;2023-02-13T00:44:05;102438.34;;;8.14;45.56
22000;BME280;11164;48.818;2.322;2023-02-13T00:46:31;102442.84;;;8.13;45.52
22000;BME280;11164;48.818;2.322;2023-02-13T00:48:56;102445.59;;;8.23;45.16
22000;BME280;11164;48.818;2.322;2023-02-13T00:51:22;102445.31;;;8.36;44.64
22000;BME280;11164;48.818;2.322;2023-02-13T00:53:47;102445.91;;;8.39;44.69
22000;BME280;11164;48.818;2.322;2023-02-13T00:56:13;102445.31;;;8.26;45.36
22000;BME280;11164;48.818;2.322;2023-02-13T00:58:38;102445.88;;;8.30;44.94
22000;BME280;11164;48.818;2.322;2023-02-13T01:01:04;102445.19;;;8.28;45.16
22000;BME280;11164;48.818;2.322;2023-02-13T01:03:30;102441.31;;;8.11;45.61
22000;BME280;11164;48.818;2.322;2023-02-13T01:05:56;102433.22;;;8.01;45.64
22000;BME280;11164;48.818;2.322;2023-02-13T01:08:22;102443.13;;;8.00;45.90
22000;BME280;11164;48.818;2.322;2023-02-13T01:10:48;102444.09;;;7.99;45.79
22000;BME280;11164;48.818;2.322;2023-02-13T01:13:16;102430.59;;;7.90;45.61
22000;BME280;11164;48.818;2.322;2023-02-13T01:15:46;102427.75;;;7.81;45.99
22000;BME280;11164;48.818;2.322;2023-02-13T01:18:16;102429.16;;;7.85;46.22
22000;BME280;11164;48.818;2.322;2023-02-13T01:20:43;102427.22;;;7.87;45.92
22000;BME280;11164;48.818;2.322;2023-02-13T01:23:10;102427.47;;;7.84;45.79
22000;BME280;11164;48.818;2.322;2023-02-13T01:25:39;102431.84;;;7.85;46.15
22000;BME280;11164;48.818;2.322;2023-02-13T01:28:05;102429.03;;;7.87;45.81
22000;BME280;11164;48.818;2.322;2023-02-13T01:30:31;102439.47;;;7.80;46.08
22000;BME280;11164;48.818;2.322;2023-02-13T01:32:56;102432.28;;;7.81;46.18
22000;BME280;11164;48.818;2.322;2023-02-13T01:35:22;102429.59;;;7.81;46.17
22000;BME280;11164;48.818;2.322;2023-02-13T01:37:47;102428.00;;;7.78;46.01
22000;BME280;11164;48.818;2.322;2023-02-13T01:40:14;102420.50;;;7.72;46.17
22000;BME280;11164;48.818;2.322;2023-02-13T01:42:39;102430.66;;;7.68;46.38
22000;BME280;11164;48.818;2.322;2023-02-13T01:45:19;102436.88;;;7.69;46.80
22000;BME280;11164;48.818;2.322;2023-02-13T01:47:50;102437.59;;;7.71;46.14
22000;BME280;11164;48.818;2.322;2023-02-13T01:53:15;102429.78;;;7.68;46.57
22000;BME280;11164;48.818;2.322;2023-02-13T01:55:46;102430.22;;;7.63;46.34
22000;BME280;11164;48.818;2.322;2023-02-13T01:58:16;102431.19;;;7.62;46.41
22000;BME280;11164;48.818;2.322;2023-02-13T02:00:45;102422.28;;;7.62;46.72
22000;BME280;11164;48.818;2.322;2023-02-13T02:03:36;102423.97;;;7.63;46.88
22000;BME280;11164;48.818;2.322;2023-02-13T02:06:03;102425.81;;;7.62;45.99
22000;BME280;11164;48.818;2.322;2023-02-13T02:08:30;102425.09;;;7.60;46.24
22000;BME280;11164;48.818;2.322;2023-02-13T02:11:02;102424.97;;;7.62;46.47
22000;BME280;11164;48.818;2.322;2023-02-13T02:13:29;102419.59;;;7.62;46.19
22000;BME280;11164;48.818;2.322;2023-02-13T02:15:55;102414.91;;;7.54;46.55
22000;BME280;11164;48.818;2.322;2023-02-13T02:18:22;102431.56;;;7.48;46.38
22000;BME280;11164;48.818;2.322;2023-02-13T02:34:49;102418.94;;;7.39;46.66
22000;BME280;11164;48.818;2.322;2023-02-13T02:43:19;102415.50;;;7.37;47.29
22000;BME280;11164;48.818;2.322;2023-02-13T02:46:05;102421.22;;;7.22;46.81
22000;BME280;11164;48.818;2.322;2023-02-13T02:49:10;102420.06;;;7.15;47.45
22000;BME280;11164;48.818;2.322;2023-02-13T02:52:05;102420.63;;;7.19;46.88
22000;BME280;11164;48.818;2.322;2023-02-13T02:54:51;102411.63;;;7.20;47.51
22000;BME280;11164;48.818;2.322;2023-02-13T02:57:32;102416.56;;;7.24;46.47
22000;BME280;11164;48.818;2.322;2023-02-13T03:00:20;102418.03;;;7.28;46.51
22000;BME280;11164;48.818;2.322;2023-02-13T03:03:14;102412.34;;;7.22;46.84
22000;BME280;11164;48.818;2.322;2023-02-13T03:06:01;102419.13;;;7.26;46.60
22000;BME280;11164;48.818;2.322;2023-02-13T03:08:36;102409.97;;;7.28;46.96
22000;BME280;11164;48.818;2.322;2023-02-13T03:11:20;102411.66;;;7.29;46.75
22000;BME280;11164;48.818;2.322;2023-02-13T03:14:07;102414.75;;;7.25;46.53
22000;BME280;11164;48.818;2.322;2023-02-13T03:16:34;102417.69;;;7.22;46.75
22000;BME280;11164;48.818;2.322;2023-02-13T03:19:34;102422.34;;;7.20;47.26
22000;BME280;11164;48.818;2.322;2023-02-13T03:28:16;102429.63;;;7.08;47.40
22000;BME280;11164;48.818;2.322;2023-02-13T03:33:53;102422.03;;;7.13;47.33
22000;BME280;11164;48.818;2.322;2023-02-13T03:36:43;102418.00;;;7.07;47.44
22000;BME280;11164;48.818;2.322;2023-02-13T03:42:05;102413.13;;;7.34;48.94
22000;BME280;11164;48.818;2.322;2023-02-13T03:47:07;102408.22;;;7.48;48.84
22000;BME280;11164;48.818;2.322;2023-02-13T03:49:38;102415.94;;;7.32;46.29
22000;BME280;11164;48.818;2.322;2023-02-13T03:55:37;102413.63;;;7.27;46.09
22000;BME280;11164;48.818;2.322;2023-02-13T03:58:28;102406.56;;;7.26;46.51
22000;BME280;11164;48.818;2.322;2023-02-13T04:01:17;102411.06;;;7.26;46.54
22000;BME280;11164;48.818;2.322;2023-02-13T04:06:26;102414.91;;;7.23;46.80
22000;BME280;11164;48.818;2.322;2023-02-13T04:08:54;102418.94;;;7.18;46.32
22000;BME280;11164;48.818;2.322;2023-02-13T04:11:44;102419.34;;;7.13;47.52
22000;BME280;11164;48.818;2.322;2023-02-13T04:14:24;102424.03;;;7.00;47.27
22000;BME280;11164;48.818;2.322;2023-02-13T04:17:07;102424.63;;;6.82;47.55
22000;BME280;11164;48.818;2.322;2023-02-13T04:19:33;102423.91;;;6.80;47.33
22000;BME280;11164;48.818;2.322;2023-02-13T04:22:00;102429.97;;;6.82;47.14
22000;BME280;11164;48.818;2.322;2023-02-13T04:24:27;102418.19;;;6.73;47.52
22000;BME280;11164;48.818;2.322;2023-02-13T04:26:53;102421.13;;;6.70;47.47
22000;BME280;11164;48.818;2.322;2023-02-13T04:29:21;102426.91;;;6.87;47.49
22000;BME280;11164;48.818;2.322;2023-02-13T04:31:47;102427.69;;;6.99;47.00
22000;BME280;11164;48.818;2.322;2023-02-13T04:34:12;102428.56;;;6.99;46.80
22000;BME280;11164;48.818;2.322;2023-02-13T04:36:38;102430.81;;;6.83;47.29
22000;BME280;11164;48.818;2.322;2023-02-13T04:39:03;102425.13;;;6.76;47.36
22000;BME280;11164;48.818;2.322;2023-02-13T04:41:29;102429.03;;;6.72;47.73
22000;BME280;11164;48.818;2.322;2023-02-13T04:43:54;102425.13;;;6.76;47.62
22000;BME280;11164;48.818;2.322;2023-02-13T04:46:20;102421.59;;;6.76;47.64
22000;BME280;11164;48.818;2.322;2023-02-13T04:48:45;102424.75;;;6.81;47.65
22000;BME280;11164;48.818;2.322;2023-02-13T04:51:11;102423.78;;;6.82;47.48
22000;BME280;11164;48.818;2.322;2023-02-13T04:53:36;102425.72;;;6.80;47.55
22000;BME280;11164;48.818;2.322;2023-02-13T04:56:02;102423.03;;;6.80;47.63
22000;BME280;11164;48.818;2.322;2023-02-13T04:58:28;102421.22;;;6.80;47.43
22000;BME280;11164;48.818;2.322;2023-02-13T05:00:53;102426.38;;;6.72;47.57
22000;BME280;11164;48.818;2.322;2023-02-13T05:03:19;102417.84;;;6.67;47.81
22000;BME280;11164;48.818;2.322;2023-02-13T05:05:44;102420.91;;;6.62;47.57
22000;BME280;11164;48.818;2.322;2023-02-13T05:08:09;102424.84;;;6.58;47.64
22000;BME280;11164;48.818;2.322;2023-02-13T05:10:35;102417.16;;;6.53;48.00
22000;BME280;11164;48.818;2.322;2023-02-13T05:13:01;102424.34;;;6.53;47.74
22000;BME280;11164;48.818;2.322;2023-02-13T05:15:27;102424.34;;;6.53;47.97
22000;BME280;11164;48.818;2.322;2023-02-13T05:17:53;102425.06;;;6.55;47.80
22000;BME280;11164;48.818;2.322;2023-02-13T05:20:19;102420.72;;;6.54;47.82
22000;BME280;11164;48.818;2.322;2023-02-13T05:22:49;102413.16;;;6.59;47.54
22000;BME280;11164;48.818;2.322;2023-02-13T05:25:34;102410.84;;;6.54;47.73
22000;BME280;11164;48.818;2.322;2023-02-13T05:28:00;102411.97;;;6.52;47.77
22000;BME280;11164;48.818;2.322;2023-02-13T05:30:26;102407.47;;;6.41;48.01
22000;BME280;11164;48.818;2.322;2023-02-13T05:32:51;102413.53;;;6.43;48.00
22000;BME280;11164;48.818;2.322;2023-02-13T05:35:20;102411.72;;;6.44;48.02
22000;BME280;11164;48.818;2.322;2023-02-13T05:37:45;102411.84;;;6.42;48.09
22000;BME280;11164;48.818;2.322;2023-02-13T05:40:11;102417.47;;;6.39;48.25
22000;BME280;11164;48.818;2.322;2023-02-13T05:42:38;102416.34;;;6.30;48.17
22000;BME280;11164;48.818;2.322;2023-02-13T05:45:04;102420.78;;;6.31;48.38
22000;BME280;11164;48.818;2.322;2023-02-13T05:47:29;102428.28;;;6.38;48.23
22000;BME280;11164;48.818;2.322;2023-02-13T05:49:54;102417.44;;;6.50;47.91
22000;BME280;11164;48.818;2.322;2023-02-13T05:52:20;102414.00;;;6.48;47.71
22000;BME280;11164;48.818;2.322;2023-02-13T05:54:45;102419.06;;;6.42;47.85
22000;BME280;11164;48.818;2.322;2023-02-13T05:57:10;102410.28;;;6.28;48.26
22000;BME280;11164;48.818;2.322;2023-02-13T05:59:36;102416.50;;;6.17;48.56
22000;BME280;11164;48.818;2.322;2023-02-13T06:02:01;102418.19;;;6.30;48.49
22000;BME280;11164;48.818;2.322;2023-02-13T06:04:26;102423.19;;;6.34;48.25
22000;BME280;11164;48.818;2.322;2023-02-13T06:06:52;102420.00;;;6.41;47.83
22000;BME280;11164;48.818;2.322;2023-02-13T06:09:17;102418.91;;;6.43;48.26
22000;BME280;11164;48.818;2.322;2023-02-13T06:11:42;102427.41;;;6.48;47.89
22000;BME280;11164;48.818;2.322;2023-02-13T06:14:08;102422.69;;;6.52;48.02
22000;BME280;11164;48.818;2.322;2023-02-13T06:16:33;102405.91;;;6.39;48.18
22000;BME280;11164;48.818;2.322;2023-02-13T06:18:59;102414.91;;;6.26;48.31
22000;BME280;11164;48.818;2.322;2023-02-13T06:21:25;102420.28;;;6.26;48.65
22000;BME280;11164;48.818;2.322;2023-02-13T06:23:50;102422.22;;;6.24;48.47
22000;BME280;11164;48.818;2.322;2023-02-13T06:26:15;102419.69;;;6.23;48.60
22000;BME280;11164;48.818;2.322;2023-02-13T06:28:41;102417.31;;;6.29;48.31
22000;BME280;11164;48.818;2.322;2023-02-13T06:31:06;102417.19;;;6.31;48.39
22000;BME280;11164;48.818;2.322;2023-02-13T06:33:32;102424.91;;;6.35;48.26
22000;BME280;11164;48.818;2.322;2023-02-13T06:35:57;102421.13;;;6.38;48.39
22000;BME280;11164;48.818;2.322;2023-02-13T06:38:22;102426.63;;;6.36;48.12
22000;BME280;11164;48.818;2.322;2023-02-13T06:40:48;102427.34;;;6.39;48.41
22000;BME280;11164;48.818;2.322;2023-02-13T06:43:14;102424.13;;;6.45;48.07
22000;BME280;11164;48.818;2.322;2023-02-13T06:45:40;102429.97;;;6.50;48.19
22000;BME280;11164;48.818;2.322;2023-02-13T06:48:06;102436.78;;;6.54;48.38
22000;BME280;11164;48.818;2.322;2023-02-13T06:50:31;102437.97;;;6.61;48.53
22000;BME280;11164;48.818;2.322;2023-02-13T06:52:58;102443.69;;;6.68;48.78
22000;BME280;11164;48.818;2.322;2023-02-13T06:55:24;102436.38;;;6.70;48.68
22000;BME280;11164;48.818;2.322;2023-02-13T06:57:49;102428.94;;;6.62;48.39
22000;BME280;11164;48.818;2.322;2023-02-13T07:00:16;102433.81;;;6.68;48.38
22000;BME280;11164;48.818;2.322;2023-02-13T07:02:43;102440.78;;;6.60;48.43
22000;BME280;11164;48.818;2.322;2023-02-13T07:05:09;102450.16;;;6.65;48.64
22000;BME280;11164;48.818;2.322;2023-02-13T07:07:36;102450.38;;;6.62;48.62
22000;BME280;11164;48.818;2.322;2023-02-13T07:10:03;102446.16;;;6.60;48.49
22000;BME280;11164;48.818;2.322;2023-02-13T07:12:28;102452.09;;;6.63;48.35
22000;BME280;11164;48.818;2.322;2023-02-13T07:14:54;102448.81;;;6.60;48.38
22000;BME280;11164;48.818;2.322;2023-02-13T07:17:19;102465.16;;;6.57;48.59
22000;BME280;11164;48.818;2.322;2023-02-13T07:19:44;102460.16;;;6.63;48.85
22000;BME280;11164;48.818;2.322;2023-02-13T07:22:10;102463.66;;;6.75;48.30
22000;BME280;11164;48.818;2.322;2023-02-13T07:24:35;102471.16;;;6.81;48.18
22000;BME280;11164;48.818;2.322;2023-02-13T07:27:03;102474.50;;;6.73;48.67
22000;BME280;11164;48.818;2.322;2023-02-13T07:29:28;102469.59;;;6.79;48.41
22000;BME280;11164;48.818;2.322;2023-02-13T07:31:54;102467.13;;;6.87;48.62
22000;BME280;11164;48.818;2.322;2023-02-13T07:34:19;102471.50;;;6.88;48.72
22000;BME280;11164;48.818;2.322;2023-02-13T07:36:44;102480.84;;;6.93;48.51
22000;BME280;11164;48.818;2.322;2023-02-13T07:39:10;102482.06;;;7.01;48.48
22000;BME280;11164;48.818;2.322;2023-02-13T07:41:35;102475.09;;;7.09;48.38
22000;BME280;11164;48.818;2.322;2023-02-13T07:44:00;102478.81;;;7.18;48.11
22000;BME280;11164;48.818;2.322;2023-02-13T07:46:26;102471.81;;;7.27;48.23
22000;BME280;11164;48.818;2.322;2023-02-13T07:48:51;102468.66;;;7.43;47.59
22000;BME280;11164;48.818;2.322;2023-02-13T07:51:17;102470.22;;;7.45;47.86
22000;BME280;11164;48.818;2.322;2023-02-13T07:53:42;102475.78;;;7.54;47.71
22000;BME280;11164;48.818;2.322;2023-02-13T07:56:09;102469.91;;;7.60;47.59
22000;BME280;11164;48.818;2.322;2023-02-13T07:58:35;102461.97;;;7.58;47.69
22000;BME280;11164;48.818;2.322;2023-02-13T08:01:08;102464.41;;;7.61;47.63
22000;BME280;11164;48.818;2.322;2023-02-13T08:03:34;102461.56;;;7.63;47.98
22000;BME280;11164;48.818;2.322;2023-02-13T08:05:59;102467.69;;;7.65;48.08
22000;BME280;11164;48.818;2.322;2023-02-13T08:08:24;102484.03;;;7.62;47.58
22000;BME280;11164;48.818;2.322;2023-02-13T08:10:50;102477.22;;;7.58;47.96
22000;BME280;11164;48.818;2.322;2023-02-13T08:13:34;102472.63;;;7.69;48.04
22000;BME280;11164;48.818;2.322;2023-02-13T08:16:01;102475.88;;;7.73;47.64
22000;BME280;11164;48.818;2.322;2023-02-13T08:18:26;102474.22;;;7.72;47.80
22000;BME280;11164;48.818;2.322;2023-02-13T08:20:52;102473.50;;;7.70;48.25
22000;BME280;11164;48.818;2.322;2023-02-13T08:23:17;102461.81;;;7.81;47.67
22000;BME280;11164;48.818;2.322;2023-02-13T08:25:42;102469.53;;;7.95;47.64
22000;BME280;11164;48.818;2.322;2023-02-13T08:28:08;102461.88;;;7.91;47.94
22000;BME280;11164;48.818;2.322;2023-02-13T08:30:33;102469.66;;;7.94;47.60
22000;BME280;11164;48.818;2.322;2023-02-13T08:32:58;102472.75;;;7.89;47.85
22000;BME280;11164;48.818;2.322;2023-02-13T08:35:24;102476.41;;;7.88;47.76
22000;BME280;11164;48.818;2.322;2023-02-13T08:37:54;102475.47;;;7.99;47.84
22000;BME280;11164;48.818;2.322;2023-02-13T08:40:20;102479.06;;;8.09;47.67
22000;BME280;11164;48.818;2.322;2023-02-13T08:42:46;102481.47;;;8.12;47.58
22000;BME280;11164;48.818;2.322;2023-02-13T08:45:11;102483.66;;;7.97;47.88
22000;BME280;11164;48.818;2.322;2023-02-13T08:47:37;102476.75;;;7.95;47.80
22000;BME280;11164;48.818;2.322;2023-02-13T08:50:04;102472.59;;;7.91;48.10
22000;BME280;11164;48.818;2.322;2023-02-13T08:52:30;102481.84;;;7.98;48.27
22000;BME280;11164;48.818;2.322;2023-02-13T08:54:55;102483.16;;;8.13;47.66
22000;BME280;11164;48.818;2.322;2023-02-13T08:57:20;102479.09;;;8.19;47.65
22000;BME280;11164;48.818;2.322;2023-02-13T08:59:46;102487.28;;;8.17;48.11
22000;BME280;11164;48.818;2.322;2023-02-13T09:02:12;102491.78;;;8.17;48.23
22000;BME280;11164;48.818;2.322;2023-02-13T09:04:38;102487.25;;;8.08;48.24
22000;BME280;11164;48.818;2.322;2023-02-13T09:07:04;102487.63;;;8.34;47.77
22000;BME280;11164;48.818;2.322;2023-02-13T09:09:29;102485.78;;;8.34;47.89
22000;BME280;11164;48.818;2.322;2023-02-13T09:11:54;102485.78;;;8.44;47.68
22000;BME280;11164;48.818;2.322;2023-02-13T09:14:25;102483.97;;;8.54;47.64
22000;BME280;11164;48.818;2.322;2023-02-13T09:16:50;102486.53;;;8.56;47.60
22000;BME280;11164;48.818;2.322;2023-02-13T09:19:15;102483.13;;;8.54;47.85
22000;BME280;11164;48.818;2.322;2023-02-13T09:21:41;102489.63;;;8.51;47.51
22000;BME280;11164;48.818;2.322;2023-02-13T09:24:07;102489.50;;;8.53;47.60
22000;BME280;11164;48.818;2.322;2023-02-13T09:26:33;102491.22;;;8.73;47.37
22000;BME280;11164;48.818;2.322;2023-02-13T09:28:58;102486.56;;;8.75;47.61
22000;BME280;11164;48.818;2.322;2023-02-13T09:31:23;102493.38;;;8.99;47.00
22000;BME280;11164;48.818;2.322;2023-02-13T09:33:49;102488.56;;;9.03;47.17
22000;BME280;11164;48.818;2.322;2023-02-13T09:36:20;102487.56;;;8.94;47.02
22000;BME280;11164;48.818;2.322;2023-02-13T09:38:52;102487.69;;;8.82;47.80
22000;BME280;11164;48.818;2.322;2023-02-13T09:41:36;102491.09;;;8.94;47.30
22000;BME280;11164;48.818;2.322;2023-02-13T09:44:13;102487.41;;;9.15;47.32
22000;BME280;11164;48.818;2.322;2023-02-13T09:46:59;102489.53;;;9.41;46.81
22000;BME280;11164;48.818;2.322;2023-02-13T09:49:27;102486.56;;;9.44;46.86
22000;BME280;11164;48.818;2.322;2023-02-13T09:51:55;102494.47;;;9.55;46.55
22000;BME280;11164;48.818;2.322;2023-02-13T09:54:21;102495.00;;;9.68;46.48
22000;BME280;11164;48.818;2.322;2023-02-13T10:02:02;102488.94;;;9.56;46.94
22000;BME280;11164;48.818;2.322;2023-02-13T10:04:51;102495.56;;;9.72;45.89
22000;BME280;11164;48.818;2.322;2023-02-13T10:07:32;102499.22;;;9.81;46.46
22000;BME280;11164;48.818;2.322;2023-02-13T10:10:10;102494.75;;;9.62;46.83
22000;BME280;11164;48.818;2.322;2023-02-13T10:15:41;102495.22;;;9.94;46.56
22000;BME280;11164;48.818;2.322;2023-02-13T10:18:15;102493.31;;;10.05;46.18
22000;BME280;11164;48.818;2.322;2023-02-13T10:20:47;102498.41;;;9.70;46.77
22000;BME280;11164;48.818;2.322;2023-02-13T10:23:28;102498.41;;;9.70;46.56
22000;BME280;11164;48.818;2.322;2023-02-13T10:26:00;102490.00;;;10.11;46.31
22000;BME280;11164;48.818;2.322;2023-02-13T10:28:48;102488.59;;;10.17;45.23
22000;BME280;11164;48.818;2.322;2023-02-13T10:31:38;102488.78;;;10.05;46.68
22000;BME280;11164;48.818;2.322;2023-02-13T10:34:04;102495.06;;;9.96;46.92
22000;BME280;11164;48.818;2.322;2023-02-13T10:36:40;102483.50;;;10.13;46.66
22000;BME280;11164;48.818;2.322;2023-02-13T11:03:41;102465.66;;;11.65;44.35
22000;BME280;11164;48.818;2.322;2023-02-13T11:06:10;102458.72;;;11.88;44.12
22000;BME280;11164;48.818;2.322;2023-02-13T11:08:40;102444.81;;;12.09;43.68
22000;BME280;11164;48.818;2.322;2023-02-13T11:14:16;102451.13;;;11.84;42.19
22000;BME280;11164;48.818;2.322;2023-02-13T11:22:14;102446.84;;;11.81;43.45
22000;BME280;11164;48.818;2.322;2023-02-13T11:24:41;102443.25;;;11.72;44.63
22000;BME280;11164;48.818;2.322;2023-02-13T11:27:09;102438.06;;;11.53;44.66
22000;BME280;11164;48.818;2.322;2023-02-13T11:29:52;102441.09;;;11.50;44.32
22000;BME280;11164;48.818;2.322;2023-02-13T11:32:22;102437.59;;;11.92;43.89
22000;BME280;11164;48.818;2.322;2023-02-13T11:34:48;102440.34;;;12.00;43.91
22000;BME280;11164;48.818;2.322;2023-02-13T11:39:53;102429.78;;;12.15;43.76
22000;BME280;11164;48.818;2.322;2023-02-13T11:42:36;102422.56;;;12.32;42.16
22000;BME280;11164;48.818;2.322;2023-02-13T11:45:05;102425.09;;;12.42;43.40
22000;BME280;11164;48.818;2.322;2023-02-13T11:47:41;102422.31;;;12.84;41.68
22000;BME280;11164;48.818;2.322;2023-02-13T11:52:53;102411.97;;;13.04;41.09
22000;BME280;11164;48.818;2.322;2023-02-13T11:55:39;102414.84;;;13.11;40.95
22000;BME280;11164;48.818;2.322;2023-02-13T12:00:36;102417.19;;;12.65;43.02
22000;BME280;11164;48.818;2.322;2023-02-13T12:03:29;102412.50;;;13.00;40.98
22000;BME280;11164;48.818;2.322;2023-02-13T12:08:36;102405.03;;;12.93;42.24
22000;BME280;11164;48.818;2.322;2023-02-13T12:11:09;102405.34;;;12.74;42.73
22000;BME280;11164;48.818;2.322;2023-02-13T12:13:38;102402.16;;;12.70;42.76
22000;BME280;11164;48.818;2.322;2023-02-13T12:16:10;102406.00;;;12.68;42.42
22000;BME280;11164;48.818;2.322;2023-02-13T12:18:43;102404.50;;;12.82;42.13
22000;BME280;11164;48.818;2.322;2023-02-13T12:24:03;102405.16;;;13.33;40.97
22000;BME280;11164;48.818;2.322;2023-02-13T12:26:39;102397.34;;;13.46;41.14
22000;BME280;11164;48.818;2.322;2023-02-13T12:32:19;102398.34;;;13.45;40.88
22000;BME280;11164;48.818;2.322;2023-02-13T12:37:36;102395.50;;;13.39;40.08
22000;BME280;11164;48.818;2.322;2023-02-13T12:46:05;102382.66;;;13.16;38.87
22000;BME280;11164;48.818;2.322;2023-02-13T12:48:39;102375.06;;;13.11;41.04
22000;BME280;11164;48.818;2.322;2023-02-13T12:51:35;102376.09;;;13.19;38.18
22000;BME280;11164;48.818;2.322;2023-02-13T12:56:43;102376.09;;;13.02;37.03
22000;BME280;11164;48.818;2.322;2023-02-13T13:18:29;102363.25;;;12.96;40.88
22000;BME280;11164;48.818;2.322;2023-02-13T13:21:05;102356.63;;;12.90;40.92
22000;BME280;11164;48.818;2.322;2023-02-13T13:26:20;102360.28;;;14.18;38.80
22000;BME280;11164;48.818;2.322;2023-02-13T13:28:53;102354.25;;;17.45;33.11
22000;BME280;11164;48.818;2.322;2023-02-13T13:31:20;102348.69;;;19.29;30.27
22000;BME280;11164;48.818;2.322;2023-02-13T13:33:49;102346.38;;;19.84;29.87
22000;BME280;11164;48.818;2.322;2023-02-13T13:36:37;102339.72;;;19.67;28.57
22000;BME280;11164;48.818;2.322;2023-02-13T13:39:13;102348.09;;;18.67;32.36
22000;BME280;11164;48.818;2.322;2023-02-13T13:44:52;102335.75;;;15.25;37.67
22000;BME280;11164;48.818;2.322;2023-02-13T13:47:32;102334.47;;;14.83;39.84
22000;BME280;11164;48.818;2.322;2023-02-13T13:50:00;102340.41;;;14.63;41.46
22000;BME280;11164;48.818;2.322;2023-02-13T13:52:31;102333.13;;;14.41;41.58
22000;BME280;11164;48.818;2.322;2023-02-13T13:54:59;102338.78;;;14.54;41.23
22000;BME280;11164;48.818;2.322;2023-02-13T13:57:58;102333.59;;;14.44;37.16
22000;BME280;11164;48.818;2.322;2023-02-13T14:00:27;102333.09;;;14.87;39.93
22000;BME280;11164;48.818;2.322;2023-02-13T14:03:20;102319.97;;;15.35;36.27
22000;BME280;11164;48.818;2.322;2023-02-13T14:06:01;102330.00;;;15.80;35.71
22000;BME280;11164;48.818;2.322;2023-02-13T14:11:04;102331.44;;;15.97;37.35
22000;BME280;11164;48.818;2.322;2023-02-13T14:13:35;102330.69;;;16.25;37.07
22000;BME280;11164;48.818;2.322;2023-02-13T14:16:03;102328.00;;;16.10;37.24
22000;BME280;11164;48.818;2.322;2023-02-13T14:18:29;102326.94;;;16.26;37.17
22000;BME280;11164;48.818;2.322;2023-02-13T14:20:59;102322.75;;;16.51;36.98
22000;BME280;11164;48.818;2.322;2023-02-13T14:26:35;102319.25;;;16.58;32.01
22000;BME280;11164;48.818;2.322;2023-02-13T14:29:25;102321.72;;;16.53;34.77
22000;BME280;11164;48.818;2.322;2023-02-13T14:31:59;102330.69;;;16.68;36.81
22000;BME280;11164;48.818;2.322;2023-02-13T14:34:28;102325.28;;;16.53;37.18
22000;BME280;11164;48.818;2.322;2023-02-13T14:39:32;102313.56;;;17.02;36.69
22000;BME280;11164;48.818;2.322;2023-02-13T14:42:01;102311.50;;;17.11;37.02
22000;BME280;11164;48.818;2.322;2023-02-13T14:44:38;102310.72;;;16.89;37.09
22000;BME280;11164;48.818;2.322;2023-02-13T14:47:35;102314.13;;;16.98;30.89
22000;BME280;11164;48.818;2.322;2023-02-13T14:50:04;102312.44;;;16.97;37.35
22000;BME280;11164;48.818;2.322;2023-02-13T14:52:37;102319.06;;;17.16;36.54
22000;BME280;11164;48.818;2.322;2023-02-13T14:55:12;102315.59;;;17.29;36.31
22000;BME280;11164;48.818;2.322;2023-02-13T14:57:43;102309.69;;;17.32;36.60
22000;BME280;11164;48.818;2.322;2023-02-13T15:02:46;102291.50;;;17.45;36.44
22000;BME280;11164;48.818;2.322;2023-02-13T15:05:15;102304.63;;;17.57;36.63
22000;BME280;11164;48.818;2.322;2023-02-13T15:07:48;102304.69;;;17.77;36.43
22000;BME280;11164;48.818;2.322;2023-02-13T15:10:54;102304.31;;;17.93;29.33
22000;BME280;11164;48.818;2.322;2023-02-13T15:13:40;102306.69;;;18.56;30.04
22000;BME280;11164;48.818;2.322;2023-02-13T15:16:09;102299.78;;;18.67;35.60
22000;BME280;11164;48.818;2.322;2023-02-13T15:18:44;102315.13;;;18.48;31.71
22000;BME280;11164;48.818;2.322;2023-02-13T15:21:18;102314.47;;;18.53;34.92
22000;BME280;11164;48.818;2.322;2023-02-13T15:23:48;102320.75;;;19.00;34.30
22000;BME280;11164;48.818;2.322;2023-02-13T15:26:19;102309.03;;;19.52;33.51
22000;BME280;11164;48.818;2.322;2023-02-13T15:29:12;102313.31;;;19.86;29.12
22000;BME280;11164;48.818;2.322;2023-02-13T15:31:40;102316.63;;;19.49;33.08
22000;BME280;11164;48.818;2.322;2023-02-13T15:34:20;102319.69;;;19.15;31.07
22000;BME280;11164;48.818;2.322;2023-02-13T15:36:45;102316.00;;;19.47;32.83
22000;BME280;11164;48.818;2.322;2023-02-13T15:39:16;102318.53;;;19.49;32.36
22000;BME280;11164;48.818;2.322;2023-02-13T15:41:51;102313.50;;;19.91;29.79